Time;durP1;ratioP1;P1;durP2;ratioP2;P2;SDS_P1;SDS_P2;PMS_P1;PMS_P2;Temp;Humidity;BMP_temperature;BMP_pressure;BME280_temperature;BME280_humidity;BME280_pressure;Samples;Min_cycle;Max_cycle;Signal;HPM_P1;HPM_P2
2022/03/12 00:01:03;;;;;;;7.70;3.40;;;-1.40;99.90;;;;;;4930980;29;20404;-88
2022/03/12 00:03:31;;;;;;;8.55;3.40;;;-1.40;99.90;;;;;;4915364;29;20415;-88
2022/03/12 00:06:00;;;;;;;7.18;3.00;;;-1.40;99.90;;;;;;4931104;29;20415;-89
2022/03/12 00:08:46;;;;;;;7.20;3.15;;;-1.40;99.90;;;;;;4931003;29;20399;-89
2022/03/12 00:11:22;;;;;;;7.65;3.38;;;-1.30;99.90;;;;;;4931033;29;20883;-88
2022/03/12 00:13:52;;;;;;;8.85;3.28;;;-1.30;99.90;;;;;;4930972;29;20403;-89
2022/03/12 00:16:25;;;;;;;8.60;3.38;;;-1.30;99.90;;;;;;4916148;29;20467;-89
2022/03/12 00:18:56;;;;;;;8.90;3.50;;;-1.30;99.90;;;;;;4915165;29;20463;-89
2022/03/12 00:21:33;;;;;;;8.02;3.28;;;-1.30;99.90;;;;;;4930847;29;20411;-89
2022/03/12 00:24:02;;;;;;;10.07;3.35;;;-1.30;99.90;;;;;;4930888;29;20415;-88
2022/03/12 00:26:31;;;;;;;8.52;3.60;;;-1.30;99.90;;;;;;4916111;29;20751;-89
2022/03/12 00:28:59;;;;;;;7.60;3.47;;;-1.30;99.90;;;;;;4929993;29;20399;-88
2022/03/12 00:31:27;;;;;;;9.00;3.20;;;-1.40;99.90;;;;;;4918549;29;20408;-89
2022/03/12 00:33:56;;;;;;;7.38;3.35;;;-1.30;99.90;;;;;;4930685;29;20482;-89
2022/03/12 00:36:24;;;;;;;7.65;3.65;;;-1.40;99.90;;;;;;4915112;29;20804;-89
2022/03/12 00:38:51;;;;;;;8.30;3.63;;;-1.30;99.90;;;;;;4930686;29;20898;-89
2022/03/12 00:41:19;;;;;;;9.60;3.93;;;-1.30;99.90;;;;;;4930677;29;20455;-89
2022/03/12 00:43:46;;;;;;;8.23;3.35;;;-1.20;99.90;;;;;;4930706;29;20403;-88
2022/03/12 00:46:14;;;;;;;8.88;3.83;;;-1.20;99.90;;;;;;4914772;29;20399;-88
2022/03/12 00:48:42;;;;;;;8.07;3.25;;;-1.20;99.90;;;;;;4930478;29;20891;-89
2022/03/12 00:51:11;;;;;;;8.07;3.85;;;-1.20;99.90;;;;;;4930502;29;20410;-88
2022/03/12 00:53:41;;;;;;;7.70;3.63;;;-1.20;99.90;;;;;;4930457;29;20408;-88
2022/03/12 00:56:09;;;;;;;9.07;3.42;;;-1.20;99.90;;;;;;4914632;29;20501;-89
2022/03/12 00:58:38;;;;;;;8.63;3.53;;;-1.20;99.90;;;;;;4930593;29;20472;-89
2022/03/12 01:01:06;;;;;;;9.45;3.85;;;-1.20;99.90;;;;;;4914815;29;20403;-88
2022/03/12 01:03:34;;;;;;;9.52;3.95;;;-1.30;99.90;;;;;;4917440;29;20795;-89
2022/03/12 01:06:04;;;;;;;7.85;3.38;;;-1.20;99.90;;;;;;4933560;29;20404;-89
2022/03/12 01:08:33;;;;;;;9.05;3.88;;;-1.10;99.90;;;;;;4949361;29;20398;-88
2022/03/12 01:11:06;;;;;;;8.25;3.58;;;-1.20;99.90;;;;;;4934468;29;20404;-89
2022/03/12 01:13:34;;;;;;;8.27;3.67;;;-1.10;99.90;;;;;;4933618;29;20410;-89
2022/03/12 01:16:02;;;;;;;9.48;4.00;;;-1.20;99.90;;;;;;4948908;29;20430;-88
2022/03/12 01:18:30;;;;;;;8.43;3.50;;;-1.20;99.90;;;;;;4949329;29;20417;-89
2022/03/12 01:21:07;;;;;;;8.30;3.67;;;-1.30;99.90;;;;;;4949526;29;20393;-89
2022/03/12 01:23:35;;;;;;;9.25;3.80;;;-1.30;99.90;;;;;;4933297;29;20927;-89
2022/03/12 01:26:02;;;;;;;8.20;3.40;;;-1.30;99.90;;;;;;4949365;29;20406;-88
2022/03/12 01:28:30;;;;;;;8.52;3.50;;;-1.30;99.90;;;;;;4934454;29;20404;-89
2022/03/12 01:30:59;;;;;;;8.73;3.47;;;-1.30;99.90;;;;;;4949418;29;20405;-89
2022/03/12 01:33:27;;;;;;;8.15;3.60;;;-1.40;99.90;;;;;;4949139;29;20484;-88
2022/03/12 01:35:55;;;;;;;8.43;3.73;;;-1.40;99.90;;;;;;4949479;29;20406;-88
2022/03/12 01:38:32;;;;;;;7.97;3.50;;;-1.50;99.90;;;;;;4949270;29;20425;-88
2022/03/12 01:41:06;;;;;;;8.85;3.65;;;-1.50;99.90;;;;;;4952778;29;20398;-88
2022/03/12 01:43:37;;;;;;;8.18;3.78;;;-1.40;99.90;;;;;;4936793;29;20409;-87
2022/03/12 01:46:10;;;;;;;9.83;4.03;;;-1.50;99.90;;;;;;4952820;29;20421;-89
2022/03/12 01:48:46;;;;;;;8.70;3.75;;;-1.40;99.90;;;;;;4952436;29;20393;-89
2022/03/12 01:51:15;;;;;;;9.18;3.38;;;-1.30;99.90;;;;;;4952564;29;20394;-89
2022/03/12 01:53:43;;;;;;;8.43;3.60;;;-1.30;99.90;;;;;;4952646;29;20397;-87
2022/03/12 01:56:10;;;;;;;8.52;3.63;;;-1.40;99.90;;;;;;4945342;29;20430;-89
2022/03/12 01:58:38;;;;;;;10.52;3.50;;;-1.30;99.90;;;;;;4955664;29;20440;-89
2022/03/12 02:01:06;;;;;;;9.30;3.85;;;-1.30;99.90;;;;;;4955775;29;20410;-89
2022/03/12 02:03:34;;;;;;;7.43;3.28;;;-1.30;99.90;;;;;;4955480;29;20763;-88
2022/03/12 02:06:01;;;;;;;8.53;3.90;;;-1.30;99.90;;;;;;4939562;29;20404;-89
2022/03/12 02:08:29;;;;;;;8.88;3.90;;;-1.20;99.90;;;;;;4939751;29;20432;-89
2022/03/12 02:10:57;;;;;;;8.80;4.10;;;-1.20;99.90;;;;;;4955064;29;20460;-88
2022/03/12 02:13:27;;;;;;;9.10;3.92;;;-1.30;99.90;;;;;;4939089;29;20404;-88
2022/03/12 02:16:06;;;;;;;10.80;3.78;;;-1.30;99.90;;;;;;4955707;29;20428;-89
2022/03/12 02:18:37;;;;;;;10.60;4.25;;;-1.30;99.90;;;;;;4955736;29;20408;-89
2022/03/12 02:21:05;;;;;;;10.90;4.00;;;-1.30;99.90;;;;;;4955201;29;20408;-88
2022/03/12 02:23:49;;;;;;;9.13;3.63;;;-1.30;99.90;;;;;;4955072;29;20399;-88
2022/03/12 02:26:17;;;;;;;9.17;3.97;;;-1.30;99.90;;;;;;4955091;29;20475;-89
2022/03/12 02:28:45;;;;;;;7.32;3.88;;;-1.30;99.90;;;;;;4939107;29;20482;-88
2022/03/12 02:31:15;;;;;;;11.38;4.60;;;-1.30;99.90;;;;;;4939658;29;20408;-89
2022/03/12 02:33:43;;;;;;;9.43;4.10;;;-1.30;99.90;;;;;;4939210;29;20400;-89
2022/03/12 02:36:13;;;;;;;8.60;4.00;;;-1.30;99.90;;;;;;4955019;29;20419;-88
2022/03/12 02:38:42;;;;;;;11.48;4.32;;;-1.30;99.90;;;;;;4954971;29;20577;-89
2022/03/12 02:41:13;;;;;;;10.07;4.03;;;-1.30;99.90;;;;;;4956397;29;20475;-89
2022/03/12 02:43:44;;;;;;;11.32;4.65;;;-1.40;99.90;;;;;;4954960;29;20408;-89
2022/03/12 02:46:13;;;;;;;7.10;3.80;;;-1.40;99.90;;;;;;4955018;29;20400;-88
2022/03/12 02:48:52;;;;;;;10.38;4.03;;;-1.40;99.90;;;;;;4955007;29;20475;-89
2022/03/12 02:51:21;;;;;;;9.15;4.10;;;-1.30;99.90;;;;;;4953918;28;20399;-89
2022/03/12 02:53:56;;;;;;;9.68;4.07;;;-1.30;99.90;;;;;;4954860;29;20948;-89
2022/03/12 02:56:24;;;;;;;9.45;4.30;;;-1.30;99.90;;;;;;4954345;29;20435;-89
2022/03/12 02:58:52;;;;;;;10.38;4.22;;;-1.30;99.90;;;;;;4954495;29;20400;-88
2022/03/12 03:01:20;;;;;;;10.05;4.10;;;-1.20;99.90;;;;;;4954875;29;20532;-88
2022/03/12 03:03:48;;;;;;;9.20;4.28;;;-1.30;99.90;;;;;;4954309;29;20419;-89
2022/03/12 03:06:16;;;;;;;11.30;4.30;;;-1.30;99.90;;;;;;4938749;29;20407;-89
2022/03/12 03:08:44;;;;;;;11.60;4.13;;;-1.30;99.90;;;;;;4938476;29;20487;-89
2022/03/12 03:11:19;;;;;;;10.10;4.68;;;-1.40;99.90;;;;;;4954603;29;20411;-89
2022/03/12 03:13:48;;;;;;;12.07;4.47;;;-1.30;99.90;;;;;;4954164;29;20435;-89
2022/03/12 03:16:24;;;;;;;7.45;3.70;;;-1.30;99.90;;;;;;4954250;29;20950;-89
2022/03/12 03:18:53;;;;;;;10.33;4.47;;;-1.30;99.90;;;;;;4954548;29;20408;-89
2022/03/12 03:21:24;;;;;;;13.23;4.50;;;-1.30;99.90;;;;;;4954542;29;20441;-88
2022/03/12 03:23:53;;;;;;;10.57;4.30;;;-1.30;99.90;;;;;;4954058;29;20408;-89
2022/03/12 03:26:38;;;;;;;9.30;4.53;;;-1.30;99.90;;;;;;4954036;29;20412;-89
2022/03/12 03:29:07;;;;;;;11.23;4.75;;;-1.30;99.90;;;;;;4938098;29;20396;-89
2022/03/12 03:31:36;;;;;;;9.40;4.20;;;-1.40;99.90;;;;;;4954405;29;20403;-89
2022/03/12 03:34:03;;;;;;;12.02;5.05;;;-1.40;99.90;;;;;;4954121;29;20439;-89
2022/03/12 03:36:31;;;;;;;10.43;4.43;;;-1.40;99.90;;;;;;4953969;29;20424;-89
2022/03/12 03:38:59;;;;;;;12.45;4.97;;;-1.40;99.90;;;;;;4953798;29;20404;-89
2022/03/12 03:41:26;;;;;;;9.00;4.60;;;-1.30;99.90;;;;;;4937954;29;20412;-89
2022/03/12 03:43:54;;;;;;;10.52;4.68;;;-1.20;99.90;;;;;;4953739;29;20503;-89
2022/03/12 03:46:23;;;;;;;11.15;4.80;;;-1.20;99.90;;;;;;4954113;28;20399;-88
2022/03/12 03:48:52;;;;;;;10.07;4.57;;;-1.20;99.90;;;;;;4950099;28;20417;-89
2022/03/12 03:51:21;;;;;;;11.40;4.63;;;-1.20;99.90;;;;;;4956809;28;20762;-89
2022/03/12 03:53:49;;;;;;;10.27;4.63;;;-1.20;99.90;;;;;;4956086;28;20399;-88
2022/03/12 03:56:18;;;;;;;10.82;4.35;;;-1.20;99.90;;;;;;4944764;29;20416;-89
2022/03/12 03:58:46;;;;;;;12.00;4.97;;;-1.30;99.90;;;;;;4953729;29;20408;-89
2022/03/12 04:01:18;;;;;;;9.88;4.47;;;-1.40;99.90;;;;;;4940802;29;20459;-88
2022/03/12 04:03:48;;;;;;;11.70;4.78;;;-1.20;99.90;;;;;;4937282;28;20414;-89
2022/03/12 04:06:18;;;;;;;11.20;4.70;;;-1.20;99.90;;;;;;4934335;29;20406;-89
2022/03/12 04:08:47;;;;;;;14.02;5.47;;;-1.30;99.90;;;;;;4934805;29;20390;-89
2022/03/12 04:11:16;;;;;;;12.07;4.82;;;-1.20;99.90;;;;;;4934307;29;20844;-89
2022/03/12 04:13:45;;;;;;;10.90;4.90;;;-1.30;99.90;;;;;;4934730;29;20504;-89
2022/03/12 04:16:14;;;;;;;12.57;5.10;;;-1.30;99.90;;;;;;4934187;29;20972;-89
2022/03/12 04:18:44;;;;;;;12.15;5.22;;;-1.30;99.90;;;;;;4934264;29;20485;-87
2022/03/12 04:21:16;;;;;;;11.82;5.00;;;-1.30;99.90;;;;;;4934046;29;20414;-88
2022/03/12 04:23:45;;;;;;;12.65;5.13;;;-1.30;99.90;;;;;;4934169;29;20485;-89
2022/03/12 04:26:13;;;;;;;11.90;4.97;;;-1.20;99.90;;;;;;4949947;29;20441;-89
2022/03/12 04:28:41;;;;;;;11.32;5.18;;;-1.20;99.90;;;;;;4934061;29;20543;-89
2022/03/12 04:31:11;;;;;;;11.82;5.28;;;-1.20;99.90;;;;;;4934043;29;20415;-88
2022/03/12 04:33:39;;;;;;;11.68;5.57;;;-1.20;99.90;;;;;;4949857;29;20409;-88
2022/03/12 04:36:09;;;;;;;13.15;5.38;;;-1.20;99.90;;;;;;4933933;29;21321;-88
2022/03/12 04:38:37;;;;;;;12.60;5.17;;;-1.30;99.90;;;;;;4934088;29;20436;-88
2022/03/12 04:41:06;;;;;;;14.40;5.40;;;-1.30;99.90;;;;;;4934265;29;20908;-88
2022/03/12 04:43:34;;;;;;;12.13;5.13;;;-1.20;99.90;;;;;;4934155;29;21023;-88
2022/03/12 04:46:02;;;;;;;12.98;5.45;;;-1.20;99.90;;;;;;4934287;29;20394;-89
2022/03/12 04:48:31;;;;;;;14.23;5.68;;;-1.20;99.90;;;;;;4949902;29;20406;-88
2022/03/12 04:50:58;;;;;;;13.88;5.30;;;-1.20;99.90;;;;;;4933809;29;20410;-89
2022/03/12 04:53:27;;;;;;;10.60;5.25;;;-1.20;99.90;;;;;;4933805;29;20406;-88
2022/03/12 04:55:55;;;;;;;15.70;5.47;;;-1.20;99.90;;;;;;4933701;29;20409;-89
2022/03/12 04:58:23;;;;;;;11.73;5.47;;;-1.10;99.90;;;;;;4949643;29;20425;-88
2022/03/12 05:00:50;;;;;;;12.55;5.43;;;-1.20;99.90;;;;;;4949483;29;20398;-88
2022/03/12 05:03:23;;;;;;;11.63;5.20;;;-1.10;99.90;;;;;;4933466;29;20417;-88
2022/03/12 05:05:54;;;;;;;13.15;5.50;;;-1.10;99.90;;;;;;4933757;29;20952;-89
2022/03/12 05:08:24;;;;;;;13.55;6.15;;;-1.10;99.90;;;;;;4933777;29;20394;-87
2022/03/12 05:10:55;;;;;;;16.15;6.20;;;-1.10;99.90;;;;;;4949624;29;20398;-89
2022/03/12 05:13:30;;;;;;;18.85;6.45;;;-1.10;99.90;;;;;;4933856;29;20406;-89
2022/03/12 05:16:05;;;;;;;15.25;6.45;;;-1.10;99.90;;;;;;4937262;29;20406;-88
2022/03/12 05:18:36;;;;;;;13.37;6.17;;;-1.20;99.90;;;;;;4937479;29;20398;-88
2022/03/12 05:21:05;;;;;;;15.23;6.30;;;-1.10;99.90;;;;;;4937497;29;20409;-89
2022/03/12 05:23:33;;;;;;;13.10;5.88;;;-1.20;99.90;;;;;;4937204;29;20410;-89
2022/03/12 05:26:01;;;;;;;17.40;6.72;;;-1.20;99.90;;;;;;4937384;29;20873;-88
2022/03/12 05:28:32;;;;;;;14.05;6.25;;;-1.20;99.90;;;;;;4953260;29;20428;-88
2022/03/12 05:31:04;;;;;;;14.07;6.47;;;-1.20;99.90;;;;;;4937116;29;20398;-88
2022/03/12 05:33:34;;;;;;;16.80;6.60;;;-1.20;99.90;;;;;;4937003;29;20412;-88
2022/03/12 05:36:04;;;;;;;16.33;6.82;;;-1.20;99.90;;;;;;4952952;29;20401;-88
2022/03/12 05:38:34;;;;;;;15.57;6.53;;;-1.20;99.90;;;;;;4936860;29;20406;-89
2022/03/12 05:41:11;;;;;;;17.87;7.17;;;-1.10;99.90;;;;;;4952848;29;20628;-89
2022/03/12 05:43:46;;;;;;;19.50;7.40;;;-1.10;99.90;;;;;;4937320;29;20424;-89
2022/03/12 05:46:16;;;;;;;19.08;7.35;;;-1.10;99.90;;;;;;4937172;29;20409;-89
2022/03/12 05:48:47;;;;;;;18.42;7.50;;;-1.10;99.90;;;;;;4937806;29;20951;-88
2022/03/12 05:51:15;;;;;;;20.65;8.18;;;-1.10;99.90;;;;;;4947094;29;20400;-88
2022/03/12 05:53:43;;;;;;;19.23;7.75;;;-1.00;99.90;;;;;;4955802;29;20751;-89
2022/03/12 05:56:10;;;;;;;19.08;7.40;;;-1.10;99.90;;;;;;4955582;29;20502;-88
2022/03/12 05:58:39;;;;;;;19.90;7.67;;;-1.00;99.90;;;;;;4955717;29;20590;-88
2022/03/12 06:01:08;;;;;;;17.38;7.55;;;-1.00;99.90;;;;;;4956534;29;20397;-89
2022/03/12 06:03:36;;;;;;;17.17;7.78;;;-1.00;99.90;;;;;;4940547;29;20404;-89
2022/03/12 06:06:03;;;;;;;21.17;8.18;;;-1.00;99.90;;;;;;4963113;28;20746;-89
2022/03/12 06:08:33;;;;;;;18.45;7.90;;;-0.90;99.90;;;;;;4967207;28;20402;-87
2022/03/12 06:11:01;;;;;;;19.33;8.25;;;-0.90;99.90;;;;;;4951858;29;20485;-88
2022/03/12 06:13:30;;;;;;;19.92;7.85;;;-0.90;99.90;;;;;;4936381;29;20405;-88
2022/03/12 06:16:00;;;;;;;17.30;7.60;;;-0.90;99.90;;;;;;4936266;29;20939;-89
2022/03/12 06:18:34;;;;;;;18.98;8.25;;;-0.90;99.90;;;;;;4952003;29;20414;-88
2022/03/12 06:21:04;;;;;;;15.07;7.33;;;-0.80;99.90;;;;;;4936260;29;20401;-89
2022/03/12 06:23:32;;;;;;;20.33;8.38;;;-0.90;99.90;;;;;;4951932;29;20484;-89
2022/03/12 06:26:02;;;;;;;18.50;8.20;;;-0.90;99.90;;;;;;4951964;28;20406;-88
2022/03/12 06:28:32;;;;;;;18.60;7.53;;;-0.80;99.90;;;;;;4951962;29;20394;-88
2022/03/12 06:31:00;;;;;;;19.13;7.85;;;-0.80;99.90;;;;;;4957555;28;20411;-89
2022/03/12 06:33:29;;;;;;;20.00;7.88;;;-0.80;99.90;;;;;;4940334;29;20443;-88
2022/03/12 06:35:58;;;;;;;22.67;8.63;;;-0.80;99.90;;;;;;4941293;28;20752;-88
2022/03/12 06:38:26;;;;;;;19.00;8.00;;;-0.80;99.90;;;;;;4936987;29;20402;-88
2022/03/12 06:40:58;;;;;;;20.63;8.35;;;-0.80;99.90;;;;;;4950013;28;20410;-88
2022/03/12 06:43:28;;;;;;;18.85;7.95;;;-0.70;99.90;;;;;;4940036;29;20445;-89
2022/03/12 06:45:58;;;;;;;20.10;8.68;;;-0.70;99.90;;;;;;4931002;29;20394;-88
2022/03/12 06:48:25;;;;;;;17.55;7.75;;;-0.70;99.90;;;;;;4935665;29;20486;-88
2022/03/12 06:50:53;;;;;;;18.45;8.52;;;-0.70;99.90;;;;;;4951587;29;20400;-89
2022/03/12 06:53:21;;;;;;;20.27;8.57;;;-0.70;99.90;;;;;;4969582;28;20874;-88
2022/03/12 06:55:48;;;;;;;19.65;8.93;;;-0.70;99.90;;;;;;4960407;28;20402;-89
2022/03/12 06:58:17;;;;;;;20.07;8.90;;;-0.60;99.90;;;;;;4965375;28;20920;-88
2022/03/12 07:00:45;;;;;;;18.80;8.30;;;-0.60;99.90;;;;;;4947786;28;20450;-88
2022/03/12 07:03:13;;;;;;;19.70;8.67;;;-0.60;99.90;;;;;;4954176;28;20412;-87
2022/03/12 07:05:41;;;;;;;22.60;9.00;;;-0.60;99.90;;;;;;4929180;29;20410;-90
2022/03/12 07:08:09;;;;;;;18.58;8.50;;;-0.50;99.90;;;;;;4935444;29;20880;-89
2022/03/12 07:10:36;;;;;;;18.33;8.88;;;-0.50;99.90;;;;;;4945570;28;20437;-88
2022/03/12 07:13:04;;;;;;;20.52;9.77;;;-0.50;99.90;;;;;;4945567;29;20400;-87
2022/03/12 07:15:31;;;;;;;19.10;8.57;;;-0.40;99.90;;;;;;4919326;29;20394;-89
2022/03/12 07:17:59;;;;;;;20.73;8.15;;;-0.40;99.90;;;;;;4954824;28;20821;-87
2022/03/12 07:20:27;;;;;;;20.48;8.88;;;-0.30;99.90;;;;;;4929441;28;20404;-88
2022/03/12 07:22:54;;;;;;;18.90;9.00;;;-0.30;99.90;;;;;;4954342;29;20883;-88
2022/03/12 07:25:25;;;;;;;19.27;9.05;;;-0.30;99.90;;;;;;4952741;28;20408;-88
2022/03/12 07:27:56;;;;;;;18.17;8.55;;;-0.30;99.90;;;;;;4947190;29;20413;-89
2022/03/12 07:30:24;;;;;;;18.58;8.23;;;-0.20;99.90;;;;;;4962173;28;20387;-89
2022/03/12 07:32:51;;;;;;;19.35;8.93;;;-0.20;99.90;;;;;;4973555;28;20397;-89
2022/03/12 07:35:19;;;;;;;18.92;8.40;;;-0.20;99.90;;;;;;4957461;28;20442;-90
2022/03/12 07:37:49;;;;;;;18.75;8.65;;;-0.10;99.90;;;;;;4957038;28;20400;-88
2022/03/12 07:40:18;;;;;;;19.70;9.07;;;-0.10;99.90;;;;;;4938007;29;20428;-89
2022/03/12 07:42:47;;;;;;;18.92;8.80;;;-0.10;99.90;;;;;;4955360;29;20400;-88
2022/03/12 07:45:16;;;;;;;16.92;8.60;;;0.00;99.90;;;;;;4937938;29;20491;-90
2022/03/12 07:47:44;;;;;;;17.85;8.63;;;0.00;99.90;;;;;;4937940;29;20397;-89
2022/03/12 07:50:12;;;;;;;18.65;8.68;;;0.00;99.90;;;;;;4947360;28;20493;-89
2022/03/12 07:52:40;;;;;;;17.33;8.15;;;0.10;99.90;;;;;;4941263;28;20901;-88
2022/03/12 07:55:10;;;;;;;20.20;8.70;;;0.10;99.90;;;;;;4957002;28;20485;-89
2022/03/12 07:57:39;;;;;;;18.00;8.40;;;0.10;99.90;;;;;;4974063;28;20754;-90
2022/03/12 08:00:09;;;;;;;20.42;8.55;;;0.10;99.90;;;;;;4957173;28;20406;-89
2022/03/12 08:02:46;;;;;;;22.10;9.13;;;0.20;99.90;;;;;;4972658;28;20457;-88
2022/03/12 08:05:16;;;;;;;18.20;9.07;;;0.20;99.90;;;;;;4956480;28;20410;-89
2022/03/12 08:07:43;;;;;;;17.77;8.27;;;0.20;99.90;;;;;;4972933;28;20398;-89
2022/03/12 08:10:11;;;;;;;19.55;8.10;;;0.20;99.90;;;;;;4957050;28;20400;-90
2022/03/12 08:12:38;;;;;;;17.25;7.47;;;0.20;99.90;;;;;;4956705;28;20418;-89
2022/03/12 08:15:11;;;;;;;16.33;8.13;;;0.30;99.90;;;;;;4946539;29;20404;-89
2022/03/12 08:17:43;;;;;;;18.27;7.90;;;0.30;99.90;;;;;;4938568;29;20417;-90
2022/03/12 08:20:11;;;;;;;18.10;8.07;;;0.30;99.90;;;;;;4969862;28;20415;-89
2022/03/12 08:22:41;;;;;;;19.77;8.15;;;0.40;99.90;;;;;;4954413;28;20404;-88
2022/03/12 08:25:11;;;;;;;18.63;7.28;;;0.40;99.90;;;;;;4953582;29;20416;-89
2022/03/12 08:27:40;;;;;;;17.88;7.78;;;0.40;99.90;;;;;;4937459;29;20412;-88
2022/03/12 08:30:09;;;;;;;19.25;7.57;;;0.50;99.90;;;;;;4953184;29;20412;-89
2022/03/12 08:32:36;;;;;;;18.10;7.90;;;0.60;99.90;;;;;;4953024;29;20419;-89
2022/03/12 08:35:07;;;;;;;19.02;8.13;;;0.60;99.90;;;;;;4921796;29;20490;-90
2022/03/12 08:37:35;;;;;;;20.07;8.37;;;0.60;99.90;;;;;;4953061;29;20408;-89
2022/03/12 08:40:06;;;;;;;17.27;7.75;;;0.60;99.90;;;;;;4937456;29;20400;-88
2022/03/12 08:42:35;;;;;;;18.50;8.17;;;0.70;99.90;;;;;;4953038;29;20404;-87
2022/03/12 08:45:04;;;;;;;18.23;7.93;;;0.70;99.90;;;;;;4937622;29;20415;-90
2022/03/12 08:47:32;;;;;;;17.00;8.13;;;0.70;99.90;;;;;;4957284;28;20410;-90
2022/03/12 08:50:00;;;;;;;16.17;7.75;;;0.80;99.90;;;;;;4958801;28;20410;-90
2022/03/12 08:52:28;;;;;;;17.45;7.82;;;0.80;99.90;;;;;;4960384;28;20413;-90
2022/03/12 08:54:56;;;;;;;18.10;8.45;;;0.80;99.90;;;;;;4959899;28;20421;-90
2022/03/12 08:57:25;;;;;;;19.10;7.95;;;0.80;99.90;;;;;;4957099;29;20451;-90
2022/03/12 08:59:53;;;;;;;17.40;7.53;;;0.90;99.90;;;;;;4957009;29;20408;-91
2022/03/12 09:02:21;;;;;;;17.50;8.50;;;1.00;99.90;;;;;;4954437;28;20429;-91
2022/03/12 09:04:49;;;;;;;15.63;7.50;;;0.90;99.90;;;;;;4953658;29;20420;-91
2022/03/12 09:07:17;;;;;;;17.67;7.75;;;1.00;99.90;;;;;;4937866;29;20798;-89
2022/03/12 09:09:46;;;;;;;14.77;7.47;;;1.00;99.90;;;;;;4953692;29;20402;-90
2022/03/12 09:12:13;;;;;;;17.67;7.53;;;1.10;99.90;;;;;;4937697;29;20406;-90
2022/03/12 09:14:41;;;;;;;16.33;7.47;;;1.10;99.90;;;;;;4937978;29;20421;-90
2022/03/12 09:17:08;;;;;;;17.45;7.40;;;1.20;99.90;;;;;;4953639;29;20492;-91
2022/03/12 09:19:39;;;;;;;16.08;8.15;;;1.30;99.90;;;;;;4938093;29;20924;-91
2022/03/12 09:22:07;;;;;;;14.25;6.80;;;1.20;99.90;;;;;;4953453;29;20793;-89
2022/03/12 09:24:36;;;;;;;15.07;7.50;;;1.30;99.90;;;;;;4953310;29;20463;-91
2022/03/12 09:27:04;;;;;;;15.07;7.53;;;1.40;99.90;;;;;;4953328;29;20405;-90
2022/03/12 09:29:35;;;;;;;15.13;7.30;;;1.50;99.90;;;;;;4937448;29;20390;-90
2022/03/12 09:32:05;;;;;;;15.20;7.17;;;1.50;99.90;;;;;;4937325;29;20457;-90
2022/03/12 09:34:34;;;;;;;16.40;7.20;;;1.60;99.90;;;;;;4937634;29;20398;-90
2022/03/12 09:37:02;;;;;;;17.27;6.88;;;1.60;99.90;;;;;;4937704;29;20405;-90
2022/03/12 09:39:30;;;;;;;16.38;7.40;;;1.70;99.90;;;;;;4937211;29;20457;-90
2022/03/12 09:41:58;;;;;;;16.17;7.13;;;1.70;99.90;;;;;;4937110;29;20405;-89
2022/03/12 09:44:26;;;;;;;16.50;7.35;;;1.90;99.90;;;;;;4953076;29;20497;-90
2022/03/12 09:46:55;;;;;;;15.50;7.07;;;2.00;99.90;;;;;;4941352;29;20386;-89
2022/03/12 09:49:23;;;;;;;16.30;6.87;;;2.00;99.90;;;;;;4952984;29;20434;-90
2022/03/12 09:51:51;;;;;;;14.40;7.05;;;2.10;99.90;;;;;;4952971;29;20437;-90
2022/03/12 09:54:19;;;;;;;14.48;6.70;;;2.20;99.90;;;;;;4937736;29;20408;-90
2022/03/12 09:56:46;;;;;;;14.95;7.40;;;2.30;99.90;;;;;;4952634;29;20406;-89
2022/03/12 09:59:14;;;;;;;17.20;6.97;;;2.40;99.90;;;;;;4936977;29;20497;-90
2022/03/12 10:01:42;;;;;;;14.30;6.73;;;2.40;99.90;;;;;;4952426;29;20405;-91
2022/03/12 10:04:09;;;;;;;13.90;7.10;;;2.40;99.90;;;;;;4936518;29;20422;-91
2022/03/12 10:06:37;;;;;;;13.17;6.87;;;2.50;99.90;;;;;;4937661;29;20471;-91
2022/03/12 10:09:08;;;;;;;12.82;6.35;;;2.50;99.90;;;;;;4936561;29;20430;-90
2022/03/12 10:11:36;;;;;;;12.98;6.40;;;2.70;99.90;;;;;;4936572;29;20809;-91
2022/03/12 10:14:03;;;;;;;13.40;6.50;;;2.70;99.90;;;;;;4936615;29;20438;-91
2022/03/12 10:16:33;;;;;;;14.65;6.53;;;2.70;99.90;;;;;;4952026;28;20414;-91
2022/03/12 10:19:00;;;;;;;14.05;6.38;;;2.80;99.90;;;;;;4949307;29;20407;-90
2022/03/12 10:21:30;;;;;;;15.63;6.88;;;2.80;99.90;;;;;;4917455;29;20428;-91
2022/03/12 10:23:59;;;;;;;11.50;5.47;;;2.90;99.90;;;;;;4917484;29;20395;-91
2022/03/12 10:26:28;;;;;;;12.35;5.78;;;3.10;99.90;;;;;;4933122;29;20400;-90
2022/03/12 10:28:55;;;;;;;13.27;5.65;;;3.10;99.90;;;;;;4933086;29;20428;-90
2022/03/12 10:31:23;;;;;;;14.48;6.57;;;3.20;99.90;;;;;;4934232;29;20392;-91
2022/03/12 10:33:50;;;;;;;13.35;5.97;;;3.10;99.90;;;;;;4952258;29;20822;-91
2022/03/12 10:36:18;;;;;;;12.57;5.60;;;3.30;99.90;;;;;;4952568;29;20964;-90
2022/03/12 10:38:48;;;;;;;13.35;5.70;;;3.40;99.90;;;;;;4936608;29;20402;-90
2022/03/12 10:41:17;;;;;;;14.80;6.60;;;3.40;99.90;;;;;;4952605;29;20422;-91
2022/03/12 10:43:48;;;;;;;13.32;6.28;;;3.50;99.90;;;;;;4952179;29;20400;-91
2022/03/12 10:46:21;;;;;;;12.68;5.85;;;3.50;99.90;;;;;;4941076;29;20420;-91
2022/03/12 10:48:55;;;;;;;13.05;6.35;;;3.60;99.90;;;;;;4933095;29;20770;-91
2022/03/12 10:51:46;;;;;;;13.65;6.35;;;3.60;99.90;;;;;;4932874;29;20800;-91
2022/03/12 10:54:15;;;;;;;12.40;6.17;;;3.60;99.90;;;;;;4932886;29;20898;-91
2022/03/12 10:56:52;;;;;;;16.25;6.75;;;3.70;99.90;;;;;;4901124;29;20411;-90
2022/03/12 10:59:25;;;;;;;14.25;5.72;;;3.80;99.90;;;;;;4932719;29;20471;-91
2022/03/12 11:02:04;;;;;;;13.50;6.05;;;3.90;99.90;;;;;;4932767;29;20396;-91
2022/03/12 11:04:36;;;;;;;14.27;6.20;;;3.80;99.90;;;;;;4932587;29;20423;-91
2022/03/12 11:07:25;;;;;;;11.85;5.85;;;3.80;99.90;;;;;;4932443;29;20977;-91
2022/03/12 11:09:54;;;;;;;11.77;5.82;;;3.80;99.90;;;;;;4932381;29;20901;-91
2022/03/12 11:12:38;;;;;;;12.02;5.85;;;3.80;99.90;;;;;;4931548;29;20415;-91
2022/03/12 11:15:10;;;;;;;14.93;6.10;;;3.80;99.90;;;;;;4932379;29;20503;-92
2022/03/12 11:17:43;;;;;;;13.00;6.03;;;3.80;99.90;;;;;;4916809;29;20966;-90
2022/03/12 11:20:24;;;;;;;13.23;6.25;;;3.70;99.90;;;;;;4932557;29;20841;-91
2022/03/12 11:23:27;;;;;;;13.40;6.45;;;3.70;99.90;;;;;;4916601;29;20779;-91
2022/03/12 11:26:08;;;;;;;12.27;6.27;;;3.60;99.90;;;;;;4932324;29;20419;-92
2022/03/12 11:28:36;;;;;;;13.53;6.33;;;3.60;99.90;;;;;;4951211;29;20408;-92
2022/03/12 11:31:07;;;;;;;11.88;6.00;;;3.50;99.90;;;;;;4935126;29;20888;-90
2022/03/12 11:33:38;;;;;;;13.55;6.07;;;3.60;99.90;;;;;;4935476;29;20400;-91
2022/03/12 11:36:09;;;;;;;13.00;5.95;;;3.60;99.90;;;;;;4951047;29;20456;-91
2022/03/12 11:38:37;;;;;;;13.43;6.55;;;3.60;99.90;;;;;;4950922;29;20406;-91
2022/03/12 11:41:11;;;;;;;13.95;6.38;;;3.60;99.90;;;;;;4935268;29;20410;-91
2022/03/12 11:43:41;;;;;;;13.10;5.93;;;3.60;99.90;;;;;;4935063;29;20421;-90
2022/03/12 11:46:11;;;;;;;12.50;6.13;;;3.60;99.90;;;;;;4935146;29;20414;-91
2022/03/12 11:48:41;;;;;;;12.20;5.95;;;3.70;99.90;;;;;;4935317;29;20418;-91
2022/03/12 11:51:21;;;;;;;15.50;5.75;;;3.60;99.90;;;;;;4935103;29;20402;-91
2022/03/12 11:53:52;;;;;;;13.30;6.28;;;3.50;99.90;;;;;;4934970;29;20808;-91
2022/03/12 11:56:25;;;;;;;12.38;5.95;;;3.60;99.90;;;;;;4934713;29;20439;-91
2022/03/12 11:58:53;;;;;;;13.25;6.20;;;3.60;99.90;;;;;;4950941;29;20413;-91
2022/03/12 12:01:21;;;;;;;10.67;5.63;;;3.60;99.90;;;;;;4934349;29;20420;-90
2022/03/12 12:03:50;;;;;;;11.88;5.22;;;3.60;99.90;;;;;;4935048;29;20410;-89
2022/03/12 12:06:20;;;;;;;11.50;5.80;;;3.60;99.90;;;;;;4949619;29;21265;-90
2022/03/12 12:08:48;;;;;;;12.95;6.38;;;3.60;99.90;;;;;;4949922;28;20560;-89
2022/03/12 12:11:17;;;;;;;13.43;6.13;;;3.60;99.90;;;;;;4932841;29;20921;-89
2022/03/12 12:13:45;;;;;;;11.67;6.10;;;3.70;99.90;;;;;;4934480;29;20422;-90
2022/03/12 12:16:15;;;;;;;10.10;5.45;;;3.70;99.90;;;;;;4949886;29;20960;-89
2022/03/12 12:18:44;;;;;;;13.95;5.78;;;3.70;99.90;;;;;;4925905;29;20428;-89
2022/03/12 12:21:17;;;;;;;12.40;5.97;;;3.70;99.90;;;;;;4927117;29;20464;-90
2022/03/12 12:23:47;;;;;;;9.70;4.93;;;3.70;99.90;;;;;;4950013;28;20394;-89
2022/03/12 12:26:15;;;;;;;10.37;5.70;;;3.70;99.90;;;;;;4932668;29;20420;-90
2022/03/12 12:28:53;;;;;;;10.15;5.22;;;3.80;99.90;;;;;;4931068;29;20839;-90
2022/03/12 12:31:26;;;;;;;11.65;6.10;;;3.80;99.90;;;;;;4940318;28;20979;-89
2022/03/12 12:33:57;;;;;;;14.75;6.38;;;3.80;99.90;;;;;;4930004;29;20491;-88
2022/03/12 12:36:25;;;;;;;10.55;5.65;;;3.80;99.90;;;;;;4930960;29;20482;-88
2022/03/12 12:39:10;;;;;;;12.63;5.47;;;3.80;99.90;;;;;;4918870;29;20417;-88
2022/03/12 12:41:53;;;;;;;12.90;5.95;;;3.70;99.90;;;;;;4956869;28;20390;-90
2022/03/12 12:44:47;;;;;;;9.80;5.25;;;3.80;99.90;;;;;;4934240;29;20406;-89
2022/03/12 12:47:18;;;;;;;12.05;5.40;;;3.80;99.90;;;;;;4932140;29;20488;-89
2022/03/12 12:49:55;;;;;;;12.18;6.00;;;3.80;99.90;;;;;;4949869;29;20479;-89
2022/03/12 12:52:26;;;;;;;11.13;5.23;;;3.80;99.90;;;;;;4934210;29;20402;-89
2022/03/12 12:54:57;;;;;;;11.97;5.87;;;3.90;99.90;;;;;;4932615;29;20871;-89
2022/03/12 12:57:39;;;;;;;12.13;5.53;;;3.90;99.90;;;;;;4915230;29;20467;-90